createdAt,value
2019-05-11T00:00:39.629Z,81.77
2019-05-11T00:03:08.061Z,81.46
2019-05-11T00:05:36.790Z,81.25
2019-05-11T00:08:05.286Z,81.07
2019-05-11T00:10:33.712Z,80.87
2019-05-11T00:13:02.256Z,80.72
2019-05-11T00:15:31.021Z,80.24
2019-05-11T00:17:59.537Z,80.01
2019-05-11T00:20:28.293Z,79.87
2019-05-11T00:22:56.719Z,80.04
2019-05-11T00:25:25.455Z,80.13
2019-05-11T00:27:53.890Z,80.11
2019-05-11T00:30:22.393Z,79.58
2019-05-11T00:32:50.826Z,78.73
2019-05-11T00:35:19.262Z,78.13
2019-05-11T00:37:47.685Z,77.75
2019-05-11T00:40:16.658Z,77.62
2019-05-11T00:42:45.106Z,77.43
2019-05-11T00:45:14.123Z,78.46
2019-05-11T00:47:42.547Z,77.59
2019-05-11T00:50:11.750Z,78.62
2019-05-11T00:52:40.172Z,78.68
2019-05-11T00:55:08.751Z,78.51
2019-05-11T00:57:37.176Z,79.00
2019-05-11T01:00:08.021Z,78.67
2019-05-11T01:02:36.440Z,79.87
2019-05-11T01:05:06.314Z,79.10
2019-05-11T01:07:34.781Z,78.75
2019-05-11T01:10:04.362Z,78.93
2019-05-11T01:12:33.068Z,78.67
2019-05-11T01:15:01.507Z,79.33
2019-05-11T01:17:29.936Z,79.60
2019-05-11T01:19:59.335Z,79.73
2019-05-11T01:22:27.754Z,79.64
2019-05-11T01:24:56.191Z,80.33
2019-05-11T01:27:24.980Z,79.85
2019-05-11T01:29:53.401Z,80.36
2019-05-11T01:32:22.166Z,78.62
2019-05-11T01:34:50.937Z,77.72
2019-05-11T01:37:19.367Z,77.67
2019-05-11T01:39:47.788Z,78.08
2019-05-11T01:42:16.484Z,77.17
2019-05-11T01:44:44.908Z,78.15
2019-05-11T01:47:13.336Z,78.39
2019-05-11T01:49:42.165Z,78.65
2019-05-11T01:52:10.560Z,78.13
2019-05-11T01:54:38.944Z,78.09
2019-05-11T01:57:07.653Z,78.55
2019-05-11T01:59:36.042Z,78.38
2019-05-11T02:02:04.829Z,79.00
2019-05-11T02:04:33.256Z,79.36
2019-05-11T02:07:02.004Z,78.95
2019-05-11T02:09:30.368Z,80.23
2019-05-11T02:11:59.053Z,79.19
2019-05-11T02:14:27.748Z,79.39
2019-05-11T02:16:56.141Z,79.74
2019-05-11T02:19:24.775Z,80.80
2019-05-11T02:21:53.165Z,80.74
2019-05-11T02:24:21.803Z,80.99
2019-05-11T02:26:50.273Z,81.41
2019-05-11T02:29:18.936Z,81.76
2019-05-11T02:31:47.329Z,81.95
2019-05-11T02:34:15.728Z,82.65
2019-05-11T02:36:44.388Z,82.21
2019-05-11T02:39:12.778Z,82.09
2019-05-11T02:41:41.165Z,82.05
2019-05-11T02:44:09.619Z,81.99
2019-05-11T02:46:38.018Z,82.80
2019-05-11T02:49:06.694Z,82.40
2019-05-11T02:51:35.683Z,81.72
2019-05-11T02:54:04.507Z,81.62
2019-05-11T02:56:32.900Z,80.70
2019-05-11T02:59:01.285Z,80.33
2019-05-11T03:01:29.673Z,79.77
2019-05-11T03:03:58.411Z,79.90
2019-05-11T03:06:27.085Z,79.36
2019-05-11T03:08:55.788Z,79.19
2019-05-11T03:11:24.174Z,79.27
2019-05-11T03:13:52.840Z,79.80
2019-05-11T03:16:21.241Z,80.40
2019-05-11T03:18:49.620Z,79.70
2019-05-11T03:21:18.031Z,79.85
2019-05-11T03:23:46.399Z,80.56
2019-05-11T03:26:15.047Z,81.51
2019-05-11T03:28:43.450Z,81.58
2019-05-11T03:31:11.828Z,81.76
2019-05-11T03:33:40.257Z,81.83
2019-05-11T03:36:08.614Z,82.36
2019-05-11T03:38:37.353Z,82.41
2019-05-11T03:41:06.038Z,82.66
2019-05-11T03:43:34.529Z,82.77
2019-05-11T03:46:02.894Z,82.80
2019-05-11T03:48:31.585Z,82.84
2019-05-11T03:51:00.273Z,83.05
2019-05-11T03:53:28.670Z,82.96
2019-05-11T03:55:57.051Z,83.02
2019-05-11T03:58:26.791Z,82.58
2019-05-11T04:00:55.633Z,81.93
2019-05-11T04:03:24.314Z,82.64
2019-05-11T04:05:52.704Z,83.25
2019-05-11T04:08:21.102Z,84.39
2019-05-11T04:10:49.760Z,84.20
2019-05-11T04:13:18.158Z,84.19
2019-05-11T04:15:46.834Z,84.73
2019-05-11T04:18:15.236Z,84.21
2019-05-11T04:20:43.620Z,84.65
2019-05-11T04:23:12.024Z,84.30
2019-05-11T04:25:40.402Z,84.09
2019-05-11T04:28:08.792Z,84.88
2019-05-11T04:30:37.178Z,85.28
2019-05-11T04:33:05.595Z,84.66
2019-05-11T04:35:34.479Z,85.09
2019-05-11T04:38:02.887Z,85.28
2019-05-11T04:40:31.272Z,86.25
2019-05-11T04:42:59.685Z,85.62
2019-05-11T04:45:28.058Z,85.39
2019-05-11T04:47:56.449Z,84.15
2019-05-11T04:50:24.842Z,85.19
2019-05-11T04:52:53.223Z,85.21
2019-05-11T04:55:22.643Z,85.53
2019-05-11T04:57:51.030Z,85.31
2019-05-11T05:00:19.585Z,86.06
2019-05-11T05:02:47.972Z,86.79
2019-05-11T05:05:16.369Z,87.71
2019-05-11T05:07:49.376Z,90.13
2019-05-11T05:10:19.814Z,90.64
2019-05-11T05:12:50.431Z,89.72
2019-05-11T05:15:16.024Z,89.67
2019-05-11T05:17:44.417Z,90.24
2019-05-11T05:20:13.293Z,90.71
2019-05-11T05:22:41.815Z,91.29
2019-05-11T05:25:10.284Z,91.04
2019-05-11T05:27:38.670Z,91.24
2019-05-11T05:30:08.000Z,90.22
2019-05-11T05:32:36.523Z,90.96
2019-05-11T05:35:05.994Z,91.22
2019-05-11T05:37:34.378Z,91.47
2019-05-11T05:40:03.197Z,91.20
2019-05-11T05:42:31.625Z,91.75
2019-05-11T05:44:59.990Z,92.11
2019-05-11T05:47:28.374Z,92.45
2019-05-11T05:49:57.019Z,92.21
2019-05-11T05:52:25.727Z,92.18
2019-05-11T05:54:54.121Z,92.13
2019-05-11T05:57:22.505Z,91.45
2019-05-11T05:59:51.151Z,91.68
2019-05-11T06:02:19.548Z,91.37
2019-05-11T06:04:48.222Z,90.99
2019-05-11T06:07:16.915Z,91.11
2019-05-11T06:09:45.310Z,91.24
2019-05-11T06:12:13.972Z,90.53
2019-05-11T06:14:42.443Z,88.87
2019-05-11T06:17:10.873Z,88.96
2019-05-11T06:19:39.289Z,88.63
2019-05-11T06:22:07.687Z,89.13
2019-05-11T06:24:36.078Z,89.15
2019-05-11T06:27:04.585Z,89.24
2019-05-11T06:29:33.037Z,89.53
2019-05-11T06:32:01.511Z,88.62
2019-05-11T06:34:29.889Z,87.67
2019-05-11T06:36:58.287Z,87.83
2019-05-11T06:39:27.072Z,86.59
2019-05-11T06:41:55.509Z,85.79
2019-05-11T06:44:24.236Z,85.03
2019-05-11T06:46:52.633Z,85.24
2019-05-11T06:49:21.021Z,84.74
2019-05-11T06:51:49.689Z,84.83
2019-05-11T06:54:18.368Z,85.08
2019-05-11T06:56:46.766Z,84.97
2019-05-11T06:59:15.159Z,84.90
2019-05-11T07:01:51.210Z,84.45
2019-05-11T07:04:24.849Z,84.25
2019-05-11T07:06:57.743Z,84.34
2019-05-11T07:09:29.839Z,84.42
2019-05-11T07:11:59.646Z,84.56
2019-05-11T07:14:35.991Z,84.00
2019-05-11T07:17:07.952Z,84.46
2019-05-11T07:19:36.336Z,85.25
2019-05-11T07:22:09.050Z,86.27
2019-05-11T07:24:40.719Z,86.37
2019-05-11T07:27:15.598Z,86.77
2019-05-11T07:29:43.612Z,87.04
2019-05-11T07:32:22.101Z,86.80
2019-05-11T07:34:44.724Z,87.23
2019-05-11T07:37:28.367Z,86.87
2019-05-11T07:39:58.042Z,85.71
2019-05-11T07:42:28.569Z,86.08
2019-05-11T07:45:01.436Z,86.75
2019-05-11T07:47:42.014Z,85.50
2019-05-11T07:50:18.162Z,84.96
2019-05-11T07:52:58.688Z,84.70
2019-05-11T07:55:28.171Z,84.32
2019-05-11T07:58:00.885Z,84.43
2019-05-11T08:00:31.410Z,84.37
2019-05-11T08:03:00.806Z,84.49
2019-05-11T08:05:31.998Z,84.08
2019-05-11T08:08:17.908Z,83.05
2019-05-11T08:10:39.107Z,81.05
2019-05-11T08:13:10.103Z,81.08
2019-05-11T08:15:38.768Z,81.78
2019-05-11T08:18:18.927Z,81.73
2019-05-11T08:20:51.507Z,80.87
2019-05-11T08:23:22.466Z,80.95
2019-05-11T08:26:00.559Z,80.06
2019-05-11T08:28:33.358Z,80.07
2019-05-11T08:31:01.878Z,80.24
2019-05-11T08:33:30.288Z,81.17
2019-05-11T08:35:58.681Z,79.03
2019-05-11T08:38:28.503Z,79.69
2019-05-11T08:40:59.084Z,79.65
2019-05-11T08:43:38.917Z,79.79
2019-05-11T08:46:08.061Z,79.12
2019-05-11T08:48:38.748Z,77.98
2019-05-11T08:51:08.394Z,77.56
2019-05-11T08:53:38.749Z,78.75
2019-05-11T08:56:11.092Z,78.31
2019-05-11T08:58:37.997Z,77.75
2019-05-11T09:01:08.874Z,78.24
2019-05-11T09:03:38.716Z,76.82
2019-05-11T09:06:08.425Z,77.00
2019-05-11T09:08:38.799Z,77.17
2019-05-11T09:11:08.376Z,79.67
2019-05-11T09:13:39.234Z,79.61
2019-05-11T09:16:07.872Z,80.17
2019-05-11T09:18:38.485Z,79.41
2019-05-11T09:21:08.330Z,79.43
2019-05-11T09:23:39.927Z,80.19
2019-05-11T09:26:08.932Z,79.86
2019-05-11T09:28:38.463Z,79.96
2019-05-11T09:31:11.274Z,79.34
2019-05-11T09:33:39.755Z,80.48
2019-05-11T09:36:08.654Z,81.14
2019-05-11T09:38:38.361Z,81.02
2019-05-11T09:41:09.005Z,83.11
2019-05-11T09:43:37.708Z,82.08
2019-05-11T09:46:08.384Z,82.92
2019-05-11T09:48:37.881Z,82.50
2019-05-11T09:51:07.963Z,84.01
2019-05-11T09:53:38.678Z,83.38
2019-05-11T09:56:08.067Z,83.72
2019-05-11T09:58:38.721Z,82.42
2019-05-11T10:01:08.858Z,81.61
2019-05-11T10:03:38.696Z,82.74
2019-05-11T10:06:08.326Z,82.40
2019-05-11T10:08:38.111Z,80.11
2019-05-11T10:11:08.404Z,80.90
2019-05-11T10:13:38.506Z,80.01
2019-05-11T10:16:10.324Z,80.38
2019-05-11T10:18:38.582Z,80.86
2019-05-11T10:21:08.077Z,81.91
2019-05-11T10:23:38.274Z,79.47
2019-05-11T10:26:07.966Z,79.36
2019-05-11T10:28:38.784Z,79.49
2019-05-11T10:31:28.442Z,81.02
2019-05-11T10:33:58.067Z,80.04
2019-05-11T10:36:28.023Z,78.70
2019-05-11T10:38:58.660Z,77.25
2019-05-11T10:41:28.453Z,79.79
2019-05-11T10:43:58.030Z,79.45
2019-05-11T10:46:28.707Z,77.91
2019-05-11T10:48:58.640Z,78.23
2019-05-11T10:51:28.862Z,78.59
2019-05-11T10:53:57.843Z,79.87
2019-05-11T10:56:28.450Z,76.74
2019-05-11T10:58:58.623Z,77.99
2019-05-11T11:01:28.519Z,77.00
2019-05-11T11:03:58.699Z,75.46
2019-05-11T11:06:28.294Z,75.38
2019-05-11T11:08:57.873Z,76.94
2019-05-11T11:11:27.817Z,76.43
2019-05-11T11:13:58.505Z,78.88
2019-05-11T11:16:36.961Z,77.36
2019-05-11T11:18:58.803Z,79.51
2019-05-11T11:21:28.046Z,80.12
2019-05-11T11:23:58.535Z,80.36
2019-05-11T11:26:28.443Z,79.62
2019-05-11T11:28:58.048Z,79.28
2019-05-11T11:31:28.736Z,81.30
2019-05-11T11:33:58.494Z,81.89
2019-05-11T11:36:28.370Z,81.96
2019-05-11T11:38:58.353Z,82.55
2019-05-11T11:41:26.911Z,84.40
2019-05-11T11:43:55.288Z,83.29
2019-05-11T11:46:23.682Z,85.63
2019-05-11T11:48:52.334Z,85.44
2019-05-11T11:51:40.072Z,82.09
2019-05-11T11:54:08.874Z,83.49
2019-05-11T11:56:38.019Z,84.54
2019-05-11T11:59:08.574Z,83.39
2019-05-11T12:01:38.452Z,82.44
2019-05-11T12:04:08.229Z,82.76
2019-05-11T12:06:38.549Z,82.84
2019-05-11T12:09:08.967Z,84.56
2019-05-11T12:11:38.055Z,85.50
2019-05-11T12:14:08.522Z,86.05
2019-05-11T12:16:38.816Z,86.40
2019-05-11T12:19:08.426Z,85.70
2019-05-11T12:21:37.941Z,86.76
2019-05-11T12:24:08.195Z,87.90
2019-05-11T12:26:38.908Z,87.33
2019-05-11T12:29:08.156Z,85.79
2019-05-11T12:31:37.946Z,85.29
2019-05-11T12:34:08.568Z,86.86
2019-05-11T12:36:38.649Z,85.19
2019-05-11T12:39:08.618Z,86.04
2019-05-11T12:41:38.783Z,86.71
2019-05-11T12:44:08.240Z,85.83
2019-05-11T12:46:39.350Z,86.52
2019-05-11T12:49:07.978Z,86.69
2019-05-11T12:51:38.273Z,87.40
2019-05-11T12:54:08.268Z,87.06
2019-05-11T12:56:38.327Z,88.49
2019-05-11T12:59:08.223Z,88.44
2019-05-11T13:01:38.214Z,88.61
2019-05-11T13:04:08.938Z,87.40
2019-05-11T13:06:38.510Z,87.79
2019-05-11T13:09:08.421Z,88.15
2019-05-11T13:11:37.978Z,88.10
2019-05-11T13:14:08.040Z,87.41
2019-05-11T13:16:37.905Z,87.71
2019-05-11T13:19:08.418Z,88.93
2019-05-11T13:21:38.243Z,88.00
2019-05-11T13:24:08.372Z,87.04
2019-05-11T13:26:38.063Z,87.23
2019-05-11T13:29:07.745Z,87.32
2019-05-11T13:31:38.327Z,88.24
2019-05-11T13:34:08.355Z,86.74
2019-05-11T13:36:38.130Z,85.92
2019-05-11T13:39:08.894Z,86.12
2019-05-11T13:41:38.287Z,84.01
2019-05-11T13:44:07.964Z,83.02
2019-05-11T13:46:38.887Z,81.59
2019-05-11T13:49:08.589Z,81.26
2019-05-11T13:51:38.841Z,80.18
2019-05-11T13:54:07.876Z,80.56
2019-05-11T13:56:37.903Z,79.47
2019-05-11T13:59:10.795Z,79.01
2019-05-11T14:01:39.349Z,79.56
2019-05-11T14:04:08.593Z,77.08
2019-05-11T14:06:37.902Z,78.17
2019-05-11T14:09:08.390Z,78.19
2019-05-11T14:11:38.367Z,77.42
2019-05-11T14:14:07.758Z,77.64
2019-05-11T14:16:37.852Z,76.87
2019-05-11T14:19:08.655Z,75.91
2019-05-11T14:21:38.459Z,76.22
2019-05-11T14:24:07.801Z,75.72
2019-05-11T14:26:38.647Z,75.47
2019-05-11T14:29:08.477Z,75.69
2019-05-11T14:31:38.682Z,76.23
2019-05-11T14:34:08.882Z,77.31
2019-05-11T14:36:38.821Z,78.88
2019-05-11T14:39:08.402Z,75.94
2019-05-11T14:41:38.095Z,76.91
2019-05-11T14:44:08.841Z,78.25
2019-05-11T14:46:38.429Z,77.36
2019-05-11T14:49:07.971Z,77.31
2019-05-11T14:51:38.834Z,76.83
2019-05-11T14:54:08.122Z,76.55
2019-05-11T14:56:38.090Z,76.28
2019-05-11T14:59:08.870Z,75.98
2019-05-11T15:01:38.192Z,75.90
2019-05-11T15:04:08.969Z,76.47
2019-05-11T15:06:38.629Z,76.46
2019-05-11T15:09:08.461Z,76.81
2019-05-11T15:11:38.879Z,76.83
2019-05-11T15:14:08.145Z,77.73
2019-05-11T15:16:38.416Z,77.40
2019-05-11T15:19:08.014Z,77.15
2019-05-11T15:21:38.471Z,78.29
2019-05-11T15:24:09.013Z,78.95
2019-05-11T15:26:38.078Z,78.77
2019-05-11T15:29:08.150Z,81.43
2019-05-11T15:31:38.147Z,81.89
2019-05-11T15:34:08.500Z,82.85
2019-05-11T15:36:38.658Z,81.32
2019-05-11T15:39:08.163Z,82.08
2019-05-11T15:41:38.613Z,81.21
2019-05-11T15:44:11.495Z,80.98
2019-05-11T15:46:38.767Z,79.12
2019-05-11T15:49:08.877Z,79.95
2019-05-11T15:51:38.338Z,81.54
2019-05-11T15:54:08.027Z,81.68
2019-05-11T15:56:38.521Z,82.40
2019-05-11T15:59:08.626Z,82.02
2019-05-11T16:01:38.264Z,81.90
2019-05-11T16:04:09.103Z,81.56
2019-05-11T16:06:37.329Z,83.98
2019-05-11T16:09:08.254Z,82.77
2019-05-11T16:11:38.827Z,84.18
2019-05-11T16:14:08.769Z,84.12
2019-05-11T16:16:39.002Z,84.74
2019-05-11T16:19:13.824Z,83.51
2019-05-11T16:21:38.467Z,83.71
2019-05-11T16:24:07.985Z,84.94
2019-05-11T16:26:36.733Z,85.92
2019-05-11T16:29:05.107Z,86.13
2019-05-11T16:31:33.497Z,85.83
2019-05-11T16:34:02.767Z,86.91
2019-05-11T16:36:31.703Z,87.09
2019-05-11T16:39:00.178Z,86.83
2019-05-11T16:41:29.179Z,86.62
2019-05-11T16:43:58.524Z,85.94
2019-05-11T16:46:28.343Z,86.11
2019-05-11T16:48:57.911Z,87.34
2019-05-11T16:51:28.431Z,86.93
2019-05-11T16:53:58.667Z,86.98
2019-05-11T16:56:26.993Z,86.65
2019-05-11T16:58:55.385Z,86.28
2019-05-11T17:01:23.790Z,84.76
2019-05-11T17:03:52.181Z,85.80
2019-05-11T17:06:20.557Z,86.71
2019-05-11T17:08:48.954Z,87.22
2019-05-11T17:11:18.613Z,87.62
2019-05-11T17:13:48.327Z,87.00
2019-05-11T17:16:17.933Z,86.07
2019-05-11T17:18:48.313Z,85.49
2019-05-11T17:21:18.365Z,87.18
2019-05-11T17:23:48.870Z,86.09
2019-05-11T17:26:18.982Z,86.55
2019-05-11T17:28:48.995Z,87.49
2019-05-11T17:31:18.810Z,87.13
2019-05-11T17:33:47.909Z,87.10
2019-05-11T17:36:18.526Z,86.71
2019-05-11T17:38:47.843Z,86.64
2019-05-11T17:41:16.534Z,85.27
2019-05-11T17:43:44.941Z,86.30
2019-05-11T17:46:13.312Z,86.20
2019-05-11T17:48:41.705Z,86.41
2019-05-11T17:51:21.241Z,86.06
2019-05-11T17:53:40.957Z,86.72
2019-05-11T17:56:09.345Z,86.07
2019-05-11T17:58:38.042Z,85.85
2019-05-11T18:01:09.205Z,86.12
2019-05-11T18:03:38.463Z,85.99
2019-05-11T18:06:08.535Z,85.82
2019-05-11T18:08:37.077Z,85.73
2019-05-11T18:11:08.205Z,86.00
2019-05-11T18:13:35.877Z,85.53
2019-05-11T18:16:04.266Z,86.21
2019-05-11T18:18:32.656Z,85.81
2019-05-11T18:21:01.324Z,86.25
2019-05-11T18:23:30.014Z,87.07
2019-05-11T18:25:58.389Z,87.95
2019-05-11T18:28:29.006Z,87.79
2019-05-11T18:30:58.203Z,87.63
2019-05-11T18:33:27.736Z,86.88
2019-05-11T18:35:58.337Z,86.35
2019-05-11T18:38:27.659Z,86.43
2019-05-11T18:40:57.997Z,86.35
2019-05-11T18:43:28.055Z,86.94
2019-05-11T18:45:58.049Z,85.88
2019-05-11T18:48:29.124Z,85.64
2019-05-11T18:50:58.927Z,86.09
2019-05-11T18:53:28.841Z,87.37
2019-05-11T18:55:59.037Z,86.74
2019-05-11T18:58:27.845Z,88.24
2019-05-11T19:00:56.318Z,88.14
2019-05-11T19:03:24.697Z,87.57
2019-05-11T19:05:53.346Z,87.69
2019-05-11T19:08:21.734Z,88.49
2019-05-11T19:10:50.123Z,88.27
2019-05-11T19:13:18.505Z,87.67
2019-05-11T19:15:48.696Z,87.96
2019-05-11T19:18:17.622Z,87.41
2019-05-11T19:20:49.309Z,87.15
2019-05-11T19:23:19.021Z,87.20
2019-05-11T19:25:47.994Z,87.30
2019-05-11T19:28:18.692Z,87.18
2019-05-11T19:30:48.768Z,86.81
2019-05-11T19:33:19.050Z,86.51
2019-05-11T19:35:48.089Z,86.48
2019-05-11T19:38:18.744Z,86.75
2019-05-11T19:40:48.438Z,87.66
2019-05-11T19:43:18.531Z,87.72
2019-05-11T19:45:48.664Z,87.74
2019-05-11T19:48:17.209Z,87.80
2019-05-11T19:50:59.936Z,88.04
2019-05-11T19:53:15.960Z,87.90
2019-05-11T19:55:44.345Z,88.32
2019-05-11T19:58:12.797Z,88.19
2019-05-11T20:00:41.191Z,88.66
2019-05-11T20:03:10.550Z,88.70
2019-05-11T20:05:39.011Z,88.80
2019-05-11T20:08:07.926Z,88.64
2019-05-11T20:10:38.362Z,88.40
2019-05-11T20:13:07.997Z,88.99
2019-05-11T20:15:38.126Z,89.00
2019-05-11T20:18:07.982Z,88.40
2019-05-11T20:20:37.621Z,89.20
2019-05-11T20:23:07.808Z,88.43
2019-05-11T20:25:38.020Z,87.78
2019-05-11T20:28:07.559Z,88.19
2019-05-11T20:30:35.956Z,87.70
2019-05-11T20:33:04.331Z,87.79
2019-05-11T20:35:32.756Z,87.59
2019-05-11T20:38:01.114Z,87.11
2019-05-11T20:40:29.540Z,87.08
2019-05-11T20:42:58.754Z,87.02
2019-05-11T20:45:28.537Z,87.02
2019-05-11T20:47:57.151Z,87.20
2019-05-11T20:50:25.537Z,87.58
2019-05-11T20:52:53.914Z,87.16
2019-05-11T20:55:22.313Z,87.34
2019-05-11T20:57:50.692Z,87.53
2019-05-11T21:00:19.437Z,87.60
2019-05-11T21:02:49.106Z,87.98
2019-05-11T21:05:18.306Z,87.54
2019-05-11T21:07:47.002Z,88.21
2019-05-11T21:10:15.535Z,87.65
2019-05-11T21:12:43.916Z,87.60
2019-05-11T21:15:12.705Z,87.62
2019-05-11T21:17:41.090Z,88.01
2019-05-11T21:20:10.721Z,88.41
2019-05-11T21:22:40.621Z,87.84
2019-05-11T21:25:10.509Z,88.44
2019-05-11T21:27:39.417Z,88.57
2019-05-11T21:30:09.990Z,88.64
2019-05-11T21:32:39.297Z,87.90
2019-05-11T21:35:08.793Z,88.19
2019-05-11T21:37:38.834Z,88.27
2019-05-11T21:40:09.033Z,88.81
2019-05-11T21:42:39.098Z,88.05
2019-05-11T21:45:09.676Z,88.05
2019-05-11T21:47:38.967Z,87.42
2019-05-11T21:50:08.671Z,88.00
2019-05-11T21:52:38.386Z,87.42
2019-05-11T21:55:09.679Z,88.13
2019-05-11T21:57:38.362Z,88.79
2019-05-11T22:00:09.247Z,89.27
2019-05-11T22:02:38.731Z,88.85
2019-05-11T22:05:09.221Z,88.82
2019-05-11T22:07:38.822Z,88.25
2019-05-11T22:10:09.318Z,88.51
2019-05-11T22:12:38.690Z,87.62
2019-05-11T22:15:09.408Z,88.33
2019-05-11T22:17:39.229Z,88.26
2019-05-11T22:20:09.308Z,88.51
2019-05-11T22:22:38.980Z,88.37
2019-05-11T22:25:09.118Z,88.58
2019-05-11T22:27:38.699Z,88.95
2019-05-11T22:30:08.591Z,89.00
2019-05-11T22:32:38.420Z,88.94
2019-05-11T22:35:08.296Z,89.87
2019-05-11T22:37:38.550Z,89.15
2019-05-11T22:40:08.452Z,89.43
2019-05-11T22:42:37.086Z,89.37
2019-05-11T22:45:08.627Z,89.43
2019-05-11T22:47:39.405Z,89.55
2019-05-11T22:50:08.369Z,89.71
2019-05-11T22:52:39.812Z,90.07
2019-05-11T22:55:11.639Z,90.46
2019-05-11T22:57:38.595Z,90.42
2019-05-11T23:00:11.073Z,90.86
2019-05-11T23:02:39.787Z,90.79
2019-05-11T23:05:09.147Z,90.84
2019-05-11T23:07:41.637Z,90.95
2019-05-11T23:10:10.178Z,91.17
2019-05-11T23:12:38.889Z,91.18
2019-05-11T23:15:10.102Z,91.75
2019-05-11T23:17:38.944Z,92.08
2019-05-11T23:20:07.973Z,91.81
2019-05-11T23:22:53.453Z,92.27
2019-05-11T23:25:08.358Z,92.75
2019-05-11T23:27:39.126Z,93.10
2019-05-11T23:30:08.823Z,93.17
2019-05-11T23:32:37.756Z,93.43
2019-05-11T23:35:09.124Z,93.12
2019-05-11T23:37:38.632Z,93.55
2019-05-11T23:40:09.590Z,93.82
2019-05-11T23:42:38.241Z,93.98
2019-05-11T23:45:08.497Z,94.14
2019-05-11T23:47:39.276Z,94.54
2019-05-11T23:50:08.481Z,94.65
2019-05-11T23:52:38.040Z,94.55
2019-05-11T23:55:08.342Z,94.90
2019-05-11T23:57:37.850Z,95.14
